createdAt,value
2017-03-12T00:00:44.853Z,1013.27
2017-03-12T00:01:55.693Z,1013.26
2017-03-12T00:03:06.353Z,1013.23
2017-03-12T00:04:16.624Z,1013.24
2017-03-12T00:05:27.297Z,1013.23
2017-03-12T00:06:37.189Z,1013.24
2017-03-12T00:07:47.617Z,1013.24
2017-03-12T00:08:58.302Z,1013.2
2017-03-12T00:10:08.591Z,1013.18
2017-03-12T00:11:18.474Z,1013.17
2017-03-12T00:12:29.149Z,1013.14
2017-03-12T00:13:39.597Z,1013.12
2017-03-12T00:14:49.908Z,1013.1
2017-03-12T00:16:00.196Z,1013.11
2017-03-12T00:17:10.865Z,1013.11
2017-03-12T00:18:21.162Z,1013.1
2017-03-12T00:19:31.606Z,1013.06
2017-03-12T00:20:42.288Z,1013.11
2017-03-12T00:21:52.593Z,1013.02
2017-03-12T00:23:03.253Z,1013.06
2017-03-12T00:24:13.564Z,1013.07
2017-03-12T00:25:24.402Z,1013.05
2017-03-12T00:26:35.078Z,1013.04
2017-03-12T00:27:45.746Z,1013.09
2017-03-12T00:28:56.414Z,1013.03
2017-03-12T00:30:06.329Z,1013.05
2017-03-12T00:31:16.780Z,1013.04
2017-03-12T00:32:27.048Z,1013.01
2017-03-12T00:33:37.377Z,1013.01
2017-03-12T00:34:48.053Z,1013.01
2017-03-12T00:35:57.981Z,1013.03
2017-03-12T00:37:07.821Z,1013.07
2017-03-12T00:38:18.496Z,1013.04
2017-03-12T00:39:29.172Z,1013.02
2017-03-12T00:40:39.470Z,1013.02
2017-03-12T00:41:49.771Z,1013
2017-03-12T00:42:59.819Z,1012.93
2017-03-12T00:44:09.724Z,1012.94
2017-03-12T00:45:19.999Z,1012.9
2017-03-12T00:46:30.701Z,1012.9
2017-03-12T00:47:41.388Z,1012.83
2017-03-12T00:48:52.200Z,1012.85
2017-03-12T00:50:02.920Z,1012.83
2017-03-12T00:51:13.636Z,1012.82
2017-03-12T00:52:23.931Z,1012.83
2017-03-12T00:53:34.627Z,1012.84
2017-03-12T00:54:45.021Z,1012.8
2017-03-12T00:55:55.712Z,1012.78
2017-03-12T00:57:06.425Z,1012.77
2017-03-12T00:58:16.764Z,1012.74
2017-03-12T00:59:27.468Z,1012.81
2017-03-12T01:00:38.247Z,1012.78
2017-03-12T01:01:47.791Z,1012.78
2017-03-12T01:02:57.699Z,1012.73
2017-03-12T01:04:08.386Z,1012.73
2017-03-12T01:05:18.719Z,1012.73
2017-03-12T01:06:29.123Z,1012.78
2017-03-12T01:07:39.826Z,1012.74
2017-03-12T01:08:49.735Z,1012.74
2017-03-12T01:09:59.650Z,1012.71
2017-03-12T01:11:09.935Z,1012.72
2017-03-12T01:12:20.714Z,1012.7
2017-03-12T01:13:31.402Z,1012.7
2017-03-12T01:14:41.298Z,1012.64
2017-03-12T01:15:51.975Z,1012.65
2017-03-12T01:17:02.269Z,1012.68
2017-03-12T01:18:12.657Z,1012.64
2017-03-12T01:19:23.343Z,1012.62
2017-03-12T01:20:33.229Z,1012.63
2017-03-12T01:21:43.511Z,1012.64
2017-03-12T01:22:53.797Z,1012.64
2017-03-12T01:24:04.241Z,1012.61
2017-03-12T01:25:14.967Z,1012.58
2017-03-12T01:26:25.280Z,1012.6
2017-03-12T01:27:35.563Z,1012.6
2017-03-12T01:28:45.449Z,1012.6
2017-03-12T01:29:56.273Z,1012.61
2017-03-12T01:31:06.544Z,1012.59
2017-03-12T01:32:16.838Z,1012.56
2017-03-12T01:33:26.722Z,1012.58
2017-03-12T01:34:37.009Z,1012.56
2017-03-12T01:35:47.835Z,1012.62
2017-03-12T01:36:58.499Z,1012.55
2017-03-12T01:38:09.208Z,1012.52
2017-03-12T01:39:19.893Z,1012.53
2017-03-12T01:40:30.566Z,1012.52
2017-03-12T01:41:41.019Z,1012.51
2017-03-12T01:42:51.348Z,1012.49
2017-03-12T01:44:01.634Z,1012.48
2017-03-12T01:45:11.908Z,1012.45
2017-03-12T01:46:21.421Z,1012.47
2017-03-12T01:47:31.881Z,1012.45
2017-03-12T01:48:42.190Z,1012.44
2017-03-12T01:49:52.891Z,1012.46
2017-03-12T01:51:03.602Z,1012.44
2017-03-12T01:52:13.531Z,1012.45
2017-03-12T01:53:23.962Z,1012.42
2017-03-12T01:54:34.232Z,1012.45
2017-03-12T01:55:44.577Z,1012.46
2017-03-12T01:56:54.893Z,1012.43
2017-03-12T01:58:05.568Z,1012.44
2017-03-12T01:59:16.595Z,1012.41
2017-03-12T02:00:27.292Z,1012.39
2017-03-12T02:01:37.601Z,1012.35
2017-03-12T02:02:48.361Z,1012.35
2017-03-12T02:03:59.048Z,1012.34
2017-03-12T02:05:09.523Z,1012.25
2017-03-12T02:06:19.837Z,1012.29
2017-03-12T02:07:29.740Z,1012.25
2017-03-12T02:08:40.430Z,1012.26
2017-03-12T02:09:50.366Z,1012.28
2017-03-12T02:11:01.215Z,1012.26
2017-03-12T02:12:11.103Z,1012.29
2017-03-12T02:13:20.997Z,1012.33
2017-03-12T02:14:30.919Z,1012.27
2017-03-12T02:15:40.079Z,1012.25
2017-03-12T02:16:50.536Z,1012.22
2017-03-12T02:18:01.205Z,1012.2
2017-03-12T02:19:11.877Z,1012.16
2017-03-12T02:20:21.806Z,1012.2
2017-03-12T02:21:32.107Z,1012.13
2017-03-12T02:22:42.957Z,1012.18
2017-03-12T02:23:53.632Z,1012.18
2017-03-12T02:25:04.338Z,1012.15
2017-03-12T02:26:15.034Z,1012.16
2017-03-12T02:27:25.710Z,1012.16
2017-03-12T02:28:36.152Z,1012.14
2017-03-12T02:29:46.440Z,1012.12
2017-03-12T02:30:57.137Z,1012.16
2017-03-12T02:32:07.816Z,1012.1
2017-03-12T02:33:18.109Z,1012.11
2017-03-12T02:34:28.942Z,1012.12
2017-03-12T02:35:39.271Z,1012.11
2017-03-12T02:36:48.774Z,1012.09
2017-03-12T02:37:59.099Z,1012.05
2017-03-12T02:39:09.795Z,1012.11
2017-03-12T02:40:20.272Z,1012.01
2017-03-12T02:41:29.819Z,1012
2017-03-12T02:42:40.533Z,1012.01
2017-03-12T02:43:51.205Z,1011.98
2017-03-12T02:45:01.896Z,1012.01
2017-03-12T02:46:12.717Z,1011.97
2017-03-12T02:47:22.677Z,1011.98
2017-03-12T02:48:32.977Z,1011.95
2017-03-12T02:49:42.893Z,1011.97
2017-03-12T02:50:53.618Z,1011.94
2017-03-12T02:52:04.417Z,1011.96
2017-03-12T02:53:14.704Z,1011.97
2017-03-12T02:54:24.595Z,1011.93
2017-03-12T02:55:34.513Z,1011.93
2017-03-12T02:56:45.489Z,1011.96
2017-03-12T02:57:56.313Z,1011.96
2017-03-12T02:59:06.603Z,1011.97
2017-03-12T03:00:17.309Z,1011.98
2017-03-12T03:01:27.609Z,1012
2017-03-12T03:02:37.108Z,1011.95
2017-03-12T03:03:47.110Z,1011.99
2017-03-12T03:04:57.414Z,1011.98
2017-03-12T03:06:07.734Z,1011.97
2017-03-12T03:07:18.406Z,1011.96
2017-03-12T03:08:29.092Z,1011.94
2017-03-12T03:09:39.483Z,1011.99
2017-03-12T03:10:49.790Z,1011.96
2017-03-12T03:11:59.711Z,1011.94
2017-03-12T03:13:10.011Z,1011.94
2017-03-12T03:14:20.681Z,1011.94
2017-03-12T03:15:30.679Z,1011.95
2017-03-12T03:16:40.910Z,1011.96
2017-03-12T03:17:51.201Z,1011.92
2017-03-12T03:19:01.883Z,1011.9
2017-03-12T03:20:11.377Z,1011.9
2017-03-12T03:21:21.961Z,1011.86
2017-03-12T03:22:32.635Z,1011.86
2017-03-12T03:23:43.354Z,1011.82
2017-03-12T03:24:54.024Z,1011.85
2017-03-12T03:26:03.900Z,1011.86
2017-03-12T03:27:14.476Z,1011.89
2017-03-12T03:28:25.159Z,1011.88
2017-03-12T03:29:35.047Z,1011.88
2017-03-12T03:30:45.336Z,1011.87
2017-03-12T03:31:55.623Z,1011.87
2017-03-12T03:33:06.479Z,1011.86
2017-03-12T03:34:17.162Z,1011.89
2017-03-12T03:35:27.861Z,1011.86
2017-03-12T03:36:38.560Z,1011.84
2017-03-12T03:37:48.078Z,1011.86
2017-03-12T03:38:58.146Z,1011.87
2017-03-12T03:40:08.841Z,1011.87
2017-03-12T03:41:19.102Z,1011.85
2017-03-12T03:42:28.983Z,1011.84
2017-03-12T03:43:39.646Z,1011.87
2017-03-12T03:44:50.480Z,1011.85
2017-03-12T03:46:00.764Z,1011.84
2017-03-12T03:47:11.057Z,1011.87
2017-03-12T03:48:21.750Z,1011.84
2017-03-12T03:49:32.439Z,1011.9
2017-03-12T03:50:42.121Z,1011.89
2017-03-12T03:51:52.398Z,1011.84
2017-03-12T03:53:03.087Z,1011.86
2017-03-12T03:54:13.791Z,1011.87
2017-03-12T03:55:24.088Z,1011.88
2017-03-12T03:56:34.545Z,1011.87
2017-03-12T03:57:44.815Z,1011.85
2017-03-12T03:58:55.504Z,1011.82
2017-03-12T04:00:05.778Z,1011.86
2017-03-12T04:01:16.453Z,1011.81
2017-03-12T04:02:27.318Z,1011.77
2017-03-12T04:03:37.986Z,1011.84
2017-03-12T04:04:48.287Z,1011.84
2017-03-12T04:05:58.183Z,1011.79
2017-03-12T04:07:08.477Z,1011.78
2017-03-12T04:08:18.898Z,1011.73
2017-03-12T04:09:29.208Z,1011.78
2017-03-12T04:10:39.882Z,1011.72
2017-03-12T04:11:50.179Z,1011.7
2017-03-12T04:13:00.491Z,1011.7
2017-03-12T04:14:11.336Z,1011.71
2017-03-12T04:15:22.024Z,1011.72
2017-03-12T04:16:32.705Z,1011.7
2017-03-12T04:17:42.647Z,1011.68
2017-03-12T04:18:52.959Z,1011.68
2017-03-12T04:20:03.444Z,1011.67
2017-03-12T04:21:12.961Z,1011.69
2017-03-12T04:22:22.479Z,1011.67
2017-03-12T04:23:32.759Z,1011.66
2017-03-12T04:24:43.437Z,1011.69
2017-03-12T04:25:54.287Z,1011.68
2017-03-12T04:27:04.964Z,1011.69
2017-03-12T04:28:15.633Z,1011.68
2017-03-12T04:29:25.916Z,1011.65
2017-03-12T04:30:35.448Z,1011.72
2017-03-12T04:31:45.504Z,1011.64
2017-03-12T04:32:55.786Z,1011.64
2017-03-12T04:34:06.069Z,1011.68
2017-03-12T04:35:15.957Z,1011.7
2017-03-12T04:36:26.641Z,1011.7
2017-03-12T04:37:37.467Z,1011.68
2017-03-12T04:38:47.749Z,1011.71
2017-03-12T04:39:58.424Z,1011.7
2017-03-12T04:41:08.706Z,1011.7
2017-03-12T04:42:18.998Z,1011.74
2017-03-12T04:43:29.810Z,1011.73
2017-03-12T04:44:39.711Z,1011.74
2017-03-12T04:45:49.984Z,1011.77
2017-03-12T04:47:00.656Z,1011.69
2017-03-12T04:48:11.332Z,1011.72
2017-03-12T04:49:21.761Z,1011.7
2017-03-12T04:50:32.446Z,1011.72
2017-03-12T04:51:42.736Z,1011.74
2017-03-12T04:52:53.414Z,1011.76
2017-03-12T04:54:04.084Z,1011.71
2017-03-12T04:55:14.912Z,1011.73
2017-03-12T04:56:25.588Z,1011.71
2017-03-12T04:57:35.499Z,1011.68
2017-03-12T04:58:44.994Z,1011.71
2017-03-12T04:59:55.294Z,1011.72
2017-03-12T05:01:05.682Z,1011.67
2017-03-12T05:02:15.959Z,1011.66
2017-03-12T05:03:26.279Z,1011.64
2017-03-12T05:04:36.561Z,1011.65
2017-03-12T05:05:46.877Z,1011.62
2017-03-12T05:06:56.860Z,1011.64
2017-03-12T05:08:07.167Z,1011.61
2017-03-12T05:09:16.678Z,1011.62
2017-03-12T05:10:26.577Z,1011.6
2017-03-12T05:11:37.292Z,1011.6
2017-03-12T05:12:47.753Z,1011.6
2017-03-12T05:13:58.089Z,1011.59
2017-03-12T05:15:08.009Z,1011.56
2017-03-12T05:16:17.892Z,1011.56
2017-03-12T05:17:28.580Z,1011.56
2017-03-12T05:18:38.197Z,1011.58
2017-03-12T05:19:48.887Z,1011.53
2017-03-12T05:20:59.600Z,1011.53
2017-03-12T05:22:09.909Z,1011.58
2017-03-12T05:23:20.594Z,1011.55
2017-03-12T05:24:31.020Z,1011.52
2017-03-12T05:25:41.753Z,1011.51
2017-03-12T05:26:52.444Z,1011.49
2017-03-12T05:28:03.148Z,1011.45
2017-03-12T05:29:12.956Z,1011.48
2017-03-12T05:30:23.602Z,1011.48
2017-03-12T05:31:33.876Z,1011.49
2017-03-12T05:32:44.585Z,1011.51
2017-03-12T05:33:54.495Z,1011.49
2017-03-12T05:35:05.205Z,1011.54
2017-03-12T05:36:15.654Z,1011.49
2017-03-12T05:37:26.369Z,1011.51
2017-03-12T05:38:36.658Z,1011.49
2017-03-12T05:39:46.956Z,1011.49
2017-03-12T05:40:57.630Z,1011.49
2017-03-12T05:42:08.062Z,1011.47
2017-03-12T05:43:18.348Z,1011.48
2017-03-12T05:44:28.636Z,1011.48
2017-03-12T05:45:38.925Z,1011.46
2017-03-12T05:46:49.613Z,1011.47
2017-03-12T05:48:00.058Z,1011.46
2017-03-12T05:49:09.973Z,1011.48
2017-03-12T05:50:20.292Z,1011.49
2017-03-12T05:51:30.191Z,1011.52
2017-03-12T05:52:40.521Z,1011.52
2017-03-12T05:53:51.412Z,1011.5
2017-03-12T05:55:01.723Z,1011.48
2017-03-12T05:56:11.646Z,1011.49
2017-03-12T05:57:22.309Z,1011.45
2017-03-12T05:58:33.002Z,1011.43
2017-03-12T05:59:43.562Z,1011.44
2017-03-12T06:00:54.232Z,1011.43
2017-03-12T06:02:04.922Z,1011.42
2017-03-12T06:03:15.589Z,1011.39
2017-03-12T06:04:26.289Z,1011.38
2017-03-12T06:05:37.135Z,1011.36
2017-03-12T06:06:47.721Z,1011.38
2017-03-12T06:07:58.000Z,1011.35
2017-03-12T06:09:07.893Z,1011.36
2017-03-12T06:10:18.220Z,1011.36
2017-03-12T06:11:29.054Z,1011.33
2017-03-12T06:12:38.976Z,1011.38
2017-03-12T06:13:49.281Z,1011.31
2017-03-12T06:14:59.583Z,1011.34
2017-03-12T06:16:10.585Z,1011.33
2017-03-12T06:17:20.643Z,1011.34
2017-03-12T06:18:30.948Z,1011.31
2017-03-12T06:19:41.257Z,1011.31
2017-03-12T06:20:51.917Z,1011.34
2017-03-12T06:22:02.203Z,1011.35
2017-03-12T06:23:13.045Z,1011.37
2017-03-12T06:24:22.983Z,1011.36
2017-03-12T06:25:33.284Z,1011.39
2017-03-12T06:26:43.564Z,1011.35
2017-03-12T06:27:53.851Z,1011.38
2017-03-12T06:29:03.909Z,1011.39
2017-03-12T06:30:14.587Z,1011.41
2017-03-12T06:31:24.874Z,1011.39
2017-03-12T06:32:35.164Z,1011.39
2017-03-12T06:33:45.444Z,1011.44
2017-03-12T06:34:55.904Z,1011.4
2017-03-12T06:36:06.208Z,1011.46
2017-03-12T06:37:16.498Z,1011.44
2017-03-12T06:38:27.198Z,1011.46
2017-03-12T06:39:37.503Z,1011.49
2017-03-12T06:40:48.352Z,1011.49
2017-03-12T06:41:59.052Z,1011.47
2017-03-12T06:43:09.340Z,1011.44
2017-03-12T06:44:19.653Z,1011.51
2017-03-12T06:45:30.362Z,1011.52
2017-03-12T06:46:41.183Z,1011.49
2017-03-12T06:47:51.477Z,1011.47
2017-03-12T06:49:02.204Z,1011.49
2017-03-12T06:50:12.096Z,1011.51
2017-03-12T06:51:22.000Z,1011.48
2017-03-12T06:52:32.462Z,1011.45
2017-03-12T06:53:43.412Z,1011.51
2017-03-12T06:54:54.084Z,1011.46
2017-03-12T06:56:04.080Z,1011.42
2017-03-12T06:57:14.747Z,1011.52
2017-03-12T06:58:25.186Z,1011.42
2017-03-12T06:59:35.871Z,1011.43
2017-03-12T07:00:46.158Z,1011.43
2017-03-12T07:01:56.076Z,1011.49
2017-03-12T07:03:05.593Z,1011.51
2017-03-12T07:04:15.982Z,1011.48
2017-03-12T07:05:25.884Z,1011.51
2017-03-12T07:06:36.569Z,1011.5
2017-03-12T07:07:46.867Z,1011.54
2017-03-12T07:08:57.175Z,1011.5
2017-03-12T07:10:07.559Z,1011.58
2017-03-12T07:11:18.255Z,1011.53
2017-03-12T07:12:28.930Z,1011.54
2017-03-12T07:13:39.246Z,1011.55
2017-03-12T07:14:49.925Z,1011.54
2017-03-12T07:16:00.367Z,1011.55
2017-03-12T07:17:10.696Z,1011.57
2017-03-12T07:18:20.624Z,1011.56
2017-03-12T07:19:30.923Z,1011.54
2017-03-12T07:20:40.820Z,1011.52
2017-03-12T07:21:51.226Z,1011.55
2017-03-12T07:23:00.749Z,1011.46
2017-03-12T07:24:11.433Z,1011.53
2017-03-12T07:25:22.114Z,1011.55
2017-03-12T07:26:32.022Z,1011.53
2017-03-12T07:27:42.419Z,1011.48
2017-03-12T07:28:53.123Z,1011.51
2017-03-12T07:30:03.411Z,1011.54
2017-03-12T07:31:13.291Z,1011.49
2017-03-12T07:32:23.986Z,1011.47
2017-03-12T07:33:34.794Z,1011.47
2017-03-12T07:34:44.706Z,1011.47
2017-03-12T07:35:55.039Z,1011.5
2017-03-12T07:37:05.766Z,1011.46
2017-03-12T07:38:16.344Z,1011.49
2017-03-12T07:39:27.187Z,1011.49
2017-03-12T07:40:37.541Z,1011.48
2017-03-12T07:41:48.601Z,1011.45
2017-03-12T07:42:58.543Z,1011.47
2017-03-12T07:44:09.358Z,1011.49
2017-03-12T07:45:20.212Z,1011.48
2017-03-12T07:46:31.017Z,1011.47
2017-03-12T07:47:41.640Z,1011.48
2017-03-12T07:48:52.360Z,1011.48
2017-03-12T07:50:03.054Z,1011.47
2017-03-12T07:51:13.510Z,1011.48
2017-03-12T07:52:23.387Z,1011.45
2017-03-12T07:53:33.673Z,1011.45
2017-03-12T07:54:43.625Z,1011.45
2017-03-12T07:55:53.887Z,1011.46
2017-03-12T07:57:05.876Z,1011.44
2017-03-12T07:58:15.831Z,1011.45
2017-03-12T07:59:26.145Z,1011.47
2017-03-12T08:00:36.175Z,1011.45
2017-03-12T08:01:46.530Z,1011.47
2017-03-12T08:02:57.013Z,1011.5
2017-03-12T08:04:07.707Z,1011.47
2017-03-12T08:05:16.954Z,1011.47
2017-03-12T08:06:27.640Z,1011.5
2017-03-12T08:07:37.576Z,1011.49
2017-03-12T08:08:48.786Z,1011.5
2017-03-12T08:09:59.115Z,1011.45
2017-03-12T08:11:09.011Z,1011.44
2017-03-12T08:12:19.997Z,1011.45
2017-03-12T08:13:30.952Z,1011.45
2017-03-12T08:14:42.601Z,1011.42
2017-03-12T08:15:53.318Z,1011.42
2017-03-12T08:17:03.619Z,1011.37
2017-03-12T08:18:13.926Z,1011.38
2017-03-12T08:19:24.610Z,1011.38
2017-03-12T08:20:35.735Z,1011.37
2017-03-12T08:21:46.418Z,1011.34
2017-03-12T08:22:56.731Z,1011.41
2017-03-12T08:24:07.364Z,1011.32
2017-03-12T08:25:17.975Z,1011.28
2017-03-12T08:26:28.416Z,1011.34
2017-03-12T08:27:39.108Z,1011.31
2017-03-12T08:28:49.398Z,1011.3
2017-03-12T08:29:59.722Z,1011.3
2017-03-12T08:31:10.436Z,1011.32
2017-03-12T08:32:20.903Z,1011.31
2017-03-12T08:33:31.189Z,1011.22
2017-03-12T08:34:41.913Z,1011.3
2017-03-12T08:35:51.423Z,1011.26
2017-03-12T08:37:02.122Z,1011.28
2017-03-12T08:38:12.957Z,1011.33
2017-03-12T08:39:23.641Z,1011.26
2017-03-12T08:40:34.345Z,1011.27
2017-03-12T08:41:45.041Z,1011.26
2017-03-12T08:42:55.699Z,1011.24
2017-03-12T08:44:06.548Z,1011.27
2017-03-12T08:45:16.884Z,1011.25
2017-03-12T08:46:27.471Z,1011.22
2017-03-12T08:47:37.776Z,1011.18
2017-03-12T08:48:48.466Z,1011.24
2017-03-12T08:49:58.925Z,1011.25
2017-03-12T08:51:09.222Z,1011.22
2017-03-12T08:52:19.925Z,1011.22
2017-03-12T08:53:30.211Z,1011.27
2017-03-12T08:54:40.139Z,1011.25
2017-03-12T08:55:50.620Z,1011.23
2017-03-12T08:57:01.207Z,1011.19
2017-03-12T08:58:10.719Z,1011.24
2017-03-12T08:59:21.004Z,1011.24
2017-03-12T09:00:31.701Z,1011.18
2017-03-12T09:01:42.129Z,1011.18
2017-03-12T09:02:52.440Z,1011.17
2017-03-12T09:04:02.716Z,1011.19
2017-03-12T09:05:13.402Z,1011.2
2017-03-12T09:06:22.921Z,1011.17
2017-03-12T09:07:33.323Z,1011.18
2017-03-12T09:08:44.007Z,1011.15
2017-03-12T09:09:54.695Z,1011.19
2017-03-12T09:11:05.012Z,1011.14
2017-03-12T09:12:15.708Z,1011.16
2017-03-12T09:13:25.740Z,1011.2
2017-03-12T09:14:36.031Z,1011.19
2017-03-12T09:15:46.715Z,1011.19
2017-03-12T09:16:57.030Z,1011.17
2017-03-12T09:18:07.317Z,1011.15
2017-03-12T09:19:17.357Z,1011.21
2017-03-12T09:20:28.054Z,1011.14
2017-03-12T09:21:38.748Z,1011.16
2017-03-12T09:22:48.673Z,1011.15
2017-03-12T09:23:58.970Z,1011.11
2017-03-12T09:25:09.772Z,1011.14
2017-03-12T09:26:20.445Z,1011.1
2017-03-12T09:27:30.763Z,1011.09
2017-03-12T09:28:41.085Z,1011.1
2017-03-12T09:29:52.056Z,1011.03
2017-03-12T09:31:02.931Z,1011.07
2017-03-12T09:32:13.283Z,1011.05
2017-03-12T09:33:22.804Z,1011.03
2017-03-12T09:34:33.092Z,1011.09
2017-03-12T09:35:43.014Z,1011.13
2017-03-12T09:36:53.445Z,1011
2017-03-12T09:38:04.146Z,1011.08
2017-03-12T09:39:14.506Z,1011.05
2017-03-12T09:40:24.021Z,1011.06
2017-03-12T09:41:34.329Z,1011.08
2017-03-12T09:42:44.783Z,1011.05
2017-03-12T09:43:55.058Z,1011.06
2017-03-12T09:45:05.642Z,1011.06
2017-03-12T09:46:16.554Z,1011.11
2017-03-12T09:47:26.858Z,1011.08
2017-03-12T09:48:37.324Z,1011.09
2017-03-12T09:49:47.639Z,1011.07
2017-03-12T09:50:57.354Z,1011.06
2017-03-12T09:52:07.311Z,1011.11
2017-03-12T09:53:17.600Z,1011.09
2017-03-12T09:54:28.074Z,1011.05
2017-03-12T09:55:38.358Z,1011.07
2017-03-12T09:56:49.055Z,1011
2017-03-12T09:57:59.340Z,1011.01
2017-03-12T09:59:10.022Z,1010.98
2017-03-12T10:00:20.477Z,1010.98
2017-03-12T10:01:30.782Z,1010.95
2017-03-12T10:02:41.539Z,1010.93
2017-03-12T10:03:52.241Z,1010.95
2017-03-12T10:05:02.911Z,1010.91
2017-03-12T10:06:13.409Z,1010.88
2017-03-12T10:07:23.331Z,1010.91
2017-03-12T10:08:33.224Z,1010.94
2017-03-12T10:09:42.360Z,1010.96
2017-03-12T10:10:52.288Z,1010.95
2017-03-12T10:12:02.731Z,1010.93
2017-03-12T10:13:13.051Z,1010.92
2017-03-12T10:14:23.785Z,1010.92
2017-03-12T10:15:34.457Z,1010.91
2017-03-12T10:16:45.173Z,1010.9
2017-03-12T10:17:55.612Z,1010.95
2017-03-12T10:19:05.544Z,1010.99
2017-03-12T10:20:15.478Z,1010.95
2017-03-12T10:21:25.097Z,1010.91
2017-03-12T10:22:35.020Z,1010.89
2017-03-12T10:23:45.906Z,1010.88
2017-03-12T10:24:56.146Z,1010.84
2017-03-12T10:26:06.802Z,1010.85
2017-03-12T10:27:16.737Z,1010.82
2017-03-12T10:28:26.851Z,1010.81
2017-03-12T10:29:36.538Z,1010.87
2017-03-12T10:30:47.281Z,1010.8
2017-03-12T10:31:57.600Z,1010.82
2017-03-12T10:33:07.920Z,1010.81
2017-03-12T10:34:18.258Z,1010.79
2017-03-12T10:35:28.092Z,1010.81
2017-03-12T10:36:38.381Z,1010.83
2017-03-12T10:37:49.510Z,1010.76
2017-03-12T10:38:59.824Z,1010.78
2017-03-12T10:40:10.923Z,1010.76
2017-03-12T10:41:20.984Z,1010.69
2017-03-12T10:42:30.911Z,1010.68
2017-03-12T10:43:41.190Z,1010.72
2017-03-12T10:44:51.909Z,1010.69
2017-03-12T10:46:02.212Z,1010.7
2017-03-12T10:47:13.082Z,1010.68
2017-03-12T10:48:23.400Z,1010.68
2017-03-12T10:49:33.693Z,1010.69
2017-03-12T10:50:43.594Z,1010.69
2017-03-12T10:51:53.494Z,1010.69
2017-03-12T10:53:03.933Z,1010.75
2017-03-12T10:54:14.229Z,1010.74
2017-03-12T10:55:23.769Z,1010.74
2017-03-12T10:56:34.061Z,1010.7
2017-03-12T10:57:44.754Z,1010.67
2017-03-12T10:58:55.204Z,1010.66
2017-03-12T11:00:05.099Z,1010.68
2017-03-12T11:01:15.398Z,1010.64
2017-03-12T11:02:25.701Z,1010.7
2017-03-12T11:03:36.426Z,1010.65
2017-03-12T11:04:46.901Z,1010.59
2017-03-12T11:05:56.820Z,1010.64
2017-03-12T11:07:06.737Z,1010.63
2017-03-12T11:08:17.048Z,1010.62
2017-03-12T11:09:26.580Z,1010.67
2017-03-12T11:10:36.226Z,1010.68
2017-03-12T11:11:46.135Z,1010.59
2017-03-12T11:12:56.064Z,1010.56
2017-03-12T11:14:06.758Z,1010.6
2017-03-12T11:15:16.698Z,1010.54
2017-03-12T11:16:26.309Z,1010.56
2017-03-12T11:17:36.305Z,1010.55
2017-03-12T11:18:47.132Z,1010.56
2017-03-12T11:19:57.590Z,1010.52
2017-03-12T11:21:07.577Z,1010.52
2017-03-12T11:22:17.991Z,1010.62
2017-03-12T11:23:28.266Z,1010.55
2017-03-12T11:24:38.966Z,1010.56
2017-03-12T11:25:49.294Z,1010.55
2017-03-12T11:26:59.620Z,1010.57
2017-03-12T11:28:10.417Z,1010.54
2017-03-12T11:29:21.103Z,1010.49
2017-03-12T11:30:31.445Z,1010.5
2017-03-12T11:31:41.737Z,1010.42
2017-03-12T11:32:52.077Z,1010.43
2017-03-12T11:34:02.116Z,1010.44
2017-03-12T11:35:12.417Z,1010.37
2017-03-12T11:36:23.125Z,1010.44
2017-03-12T11:37:33.478Z,1010.43
2017-03-12T11:38:44.042Z,1010.41
2017-03-12T11:39:54.889Z,1010.35
2017-03-12T11:41:05.197Z,1010.38
2017-03-12T11:42:15.501Z,1010.4
2017-03-12T11:43:26.183Z,1010.42
2017-03-12T11:44:36.070Z,1010.33
2017-03-12T11:45:46.768Z,1010.31
2017-03-12T11:46:57.452Z,1010.3
2017-03-12T11:48:08.162Z,1010.37
2017-03-12T11:49:18.075Z,1010.3
2017-03-12T11:50:28.001Z,1010.31
2017-03-12T11:51:38.845Z,1010.32
2017-03-12T11:52:49.133Z,1010.33
2017-03-12T11:53:59.838Z,1010.31
2017-03-12T11:55:10.529Z,1010.25
2017-03-12T11:56:20.098Z,1010.31
2017-03-12T11:57:30.194Z,1010.25
2017-03-12T11:58:40.501Z,1010.21
2017-03-12T11:59:50.813Z,1010.18
2017-03-12T12:01:01.117Z,1010.23
2017-03-12T12:02:11.427Z,1010.2
2017-03-12T12:03:21.876Z,1010.2
2017-03-12T12:04:32.189Z,1010.17
2017-03-12T12:05:42.106Z,1010.2
2017-03-12T12:06:52.809Z,1010.2
2017-03-12T12:08:03.496Z,1010.22
2017-03-12T12:09:13.935Z,1010.16
2017-03-12T12:10:24.227Z,1010.14
2017-03-12T12:11:34.515Z,1010.17
2017-03-12T12:12:45.222Z,1010.14
2017-03-12T12:13:55.914Z,1010.15
2017-03-12T12:15:06.363Z,1010.08
2017-03-12T12:16:16.288Z,1010.05
2017-03-12T12:17:27.000Z,1010.16
2017-03-12T12:18:36.915Z,1010.1
2017-03-12T12:19:47.231Z,1010.09
2017-03-12T12:20:57.296Z,1010.1
2017-03-12T12:22:07.973Z,1010.1
2017-03-12T12:23:17.859Z,1010.11
2017-03-12T12:24:27.401Z,1010.1
2017-03-12T12:25:38.105Z,1010.06
2017-03-12T12:26:48.953Z,1010.04
2017-03-12T12:27:58.960Z,1010.04
2017-03-12T12:29:08.899Z,1010.07
2017-03-12T12:30:18.817Z,1010.05
2017-03-12T12:31:29.167Z,1010.04
2017-03-12T12:32:39.232Z,1010
2017-03-12T12:33:49.534Z,1010.04
2017-03-12T12:34:59.871Z,1010.02
2017-03-12T12:36:10.579Z,1010.05
2017-03-12T12:37:20.920Z,1010.02
2017-03-12T12:38:31.772Z,1009.97
2017-03-12T12:39:42.080Z,1009.99
2017-03-12T12:40:52.434Z,1009.93
2017-03-12T12:42:02.374Z,1009.97
2017-03-12T12:43:13.054Z,1009.94
2017-03-12T12:44:23.897Z,1009.98
2017-03-12T12:45:33.836Z,1009.93
2017-03-12T12:46:44.140Z,1009.91
2017-03-12T12:47:54.070Z,1009.96
2017-03-12T12:49:04.405Z,1009.91
2017-03-12T12:50:15.268Z,1009.92
2017-03-12T12:51:25.960Z,1009.99
2017-03-12T12:52:36.262Z,1009.98
2017-03-12T12:53:46.957Z,1009.9
2017-03-12T12:54:57.251Z,1009.94
2017-03-12T12:56:08.073Z,1009.92
2017-03-12T12:57:18.395Z,1009.86
2017-03-12T12:58:28.712Z,1009.89
2017-03-12T12:59:38.999Z,1009.9
2017-03-12T13:00:48.918Z,1009.83
2017-03-12T13:01:59.392Z,1009.85
2017-03-12T13:03:10.209Z,1009.87
2017-03-12T13:04:20.929Z,1009.85
2017-03-12T13:05:31.615Z,1009.81
2017-03-12T13:06:41.519Z,1009.83
2017-03-12T13:07:52.317Z,1009.86
2017-03-12T13:09:03.037Z,1009.83
2017-03-12T13:10:13.740Z,1009.8
2017-03-12T13:11:24.076Z,1009.86
2017-03-12T13:12:33.189Z,1009.82
2017-03-12T13:13:43.203Z,1009.78
2017-03-12T13:14:53.887Z,1009.77
2017-03-12T13:16:04.183Z,1009.74
2017-03-12T13:17:14.875Z,1009.78
2017-03-12T13:18:25.192Z,1009.77
2017-03-12T13:19:35.267Z,1009.76
2017-03-12T13:20:45.593Z,1009.86
2017-03-12T13:21:55.888Z,1009.84
2017-03-12T13:23:05.791Z,1009.82
2017-03-12T13:24:16.083Z,1009.83
2017-03-12T13:25:26.480Z,1009.82
2017-03-12T13:26:36.795Z,1009.86
2017-03-12T13:27:46.725Z,1009.81
2017-03-12T13:28:56.623Z,1009.82
2017-03-12T13:30:06.916Z,1009.86
2017-03-12T13:31:16.905Z,1009.87
2017-03-12T13:32:27.197Z,1009.8
2017-03-12T13:33:37.504Z,1009.77
2017-03-12T13:34:47.007Z,1009.8
2017-03-12T13:35:57.313Z,1009.83
2017-03-12T13:37:08.153Z,1009.8
2017-03-12T13:38:18.480Z,1009.83
2017-03-12T13:39:28.016Z,1009.77
2017-03-12T13:40:37.908Z,1009.76
2017-03-12T13:41:48.885Z,1009.72
2017-03-12T13:42:59.350Z,1009.68
2017-03-12T13:44:10.051Z,1009.67
2017-03-12T13:45:19.967Z,1009.67
2017-03-12T13:46:29.871Z,1009.69
2017-03-12T13:47:40.568Z,1009.59
2017-03-12T13:48:51.391Z,1009.63
2017-03-12T13:50:01.296Z,1009.59
2017-03-12T13:51:11.970Z,1009.6
2017-03-12T13:52:21.514Z,1009.56
2017-03-12T13:53:32.221Z,1009.56
2017-03-12T13:54:42.669Z,1009.55
2017-03-12T13:55:53.332Z,1009.56
2017-03-12T13:57:03.226Z,1009.52
2017-03-12T13:58:13.932Z,1009.56
2017-03-12T13:59:23.854Z,1009.51
2017-03-12T14:00:34.329Z,1009.53
2017-03-12T14:01:44.636Z,1009.52
2017-03-12T14:02:54.534Z,1009.47
2017-03-12T14:04:04.462Z,1009.53
2017-03-12T14:05:14.766Z,1009.49
2017-03-12T14:06:25.241Z,1009.51
2017-03-12T14:07:35.947Z,1009.52
2017-03-12T14:08:45.852Z,1009.48
2017-03-12T14:09:56.539Z,1009.46
2017-03-12T14:11:07.233Z,1009.42
2017-03-12T14:12:17.305Z,1009.43
2017-03-12T14:13:27.598Z,1009.42
2017-03-12T14:14:37.911Z,1009.44